Time;durP1;ratioP1;P1;durP2;ratioP2;P2;SDS_P1;SDS_P2;PMS_P1;PMS_P2;Temp;Humidity;BMP_temperature;BMP_pressure;BME280_temperature;BME280_humidity;BME280_pressure;Samples;Min_cycle;Max_cycle;Signal;HPM_P1;HPM_P2
2022/07/19 00:00:14;;;;;;;2.70;1.63;;;;;;;19.33;51.54;94504.88;5051634;28;20567;-55
2022/07/19 00:02:58;;;;;;;3.27;1.50;;;;;;;19.22;52.00;94499.34;5047768;28;20228;-55
2022/07/19 00:05:43;;;;;;;2.00;1.30;;;;;;;19.20;52.82;94502.81;5050137;28;20237;-55
2022/07/19 00:08:28;;;;;;;2.67;1.30;;;;;;;19.08;52.49;94501.50;5051371;28;20229;-55
2022/07/19 00:11:11;;;;;;;4.07;1.40;;;;;;;18.96;53.49;94493.13;5049706;28;20205;-55
2022/07/19 00:13:55;;;;;;;1.33;1.23;;;;;;;18.77;54.04;94500.00;5043753;28;20202;-55
2022/07/19 00:16:39;;;;;;;5.97;1.50;;;;;;;18.69;54.30;94496.03;5043244;28;20202;-55
2022/07/19 00:19:24;;;;;;;4.33;1.47;;;;;;;18.57;54.59;94501.84;5050636;28;20683;-55
2022/07/19 00:22:08;;;;;;;1.87;1.40;;;;;;;18.55;54.67;94493.22;5050163;28;20228;-55
2022/07/19 00:24:52;;;;;;;1.23;1.10;;;;;;;18.62;54.48;94491.41;5045149;28;20201;-55
2022/07/19 00:27:36;;;;;;;1.60;1.37;;;;;;;18.59;54.51;94493.41;5050758;28;20206;-55
2022/07/19 00:30:20;;;;;;;1.60;1.50;;;;;;;18.51;54.87;94487.31;5049521;28;20336;-55
2022/07/19 00:33:08;;;;;;;6.23;1.53;;;;;;;18.48;54.95;94499.91;5046872;28;20201;-55
2022/07/19 00:35:52;;;;;;;1.53;1.33;;;;;;;18.30;55.60;94493.31;5051257;28;20578;-55
2022/07/19 00:38:36;;;;;;;1.70;1.60;;;;;;;18.08;56.53;94487.94;5050670;28;20327;-55
2022/07/19 00:41:20;;;;;;;2.93;1.70;;;;;;;18.04;56.61;94499.06;5045770;28;20209;-55
2022/07/19 00:44:05;;;;;;;1.60;1.50;;;;;;;17.91;57.36;94499.06;5044854;28;20718;-55
2022/07/19 00:46:50;;;;;;;2.27;1.70;;;;;;;17.81;57.85;94499.25;5051080;28;20870;-55
2022/07/19 00:49:34;;;;;;;2.17;1.60;;;;;;;17.83;57.82;94495.81;5044990;28;20634;-55
2022/07/19 00:52:20;;;;;;;2.20;1.40;;;;;;;17.97;57.92;94494.44;5045028;28;20597;-55
2022/07/19 00:55:05;;;;;;;2.47;1.70;;;;;;;17.71;58.39;94502.28;5050178;28;20197;-55
2022/07/19 00:57:50;;;;;;;3.07;1.70;;;;;;;17.64;59.09;94497.66;5049795;28;20237;-54
2022/07/19 01:00:34;;;;;;;4.87;1.60;;;;;;;17.60;58.92;94497.41;5044089;28;20189;-55
2022/07/19 01:03:18;;;;;;;2.03;1.50;;;;;;;17.38;60.24;94491.25;5047509;28;20228;-54
2022/07/19 01:06:03;;;;;;;2.37;1.93;;;;;;;17.35;60.21;94495.31;5047776;28;20233;-55
2022/07/19 01:08:47;;;;;;;4.27;1.87;;;;;;;17.38;60.96;94505.44;5049718;28;20202;-55
2022/07/19 01:11:31;;;;;;;2.80;1.70;;;;;;;17.39;60.96;94500.50;5047516;28;20239;-55
2022/07/19 01:14:15;;;;;;;5.40;1.90;;;;;;;17.31;61.21;94494.38;5044347;28;20213;-55
2022/07/19 01:16:59;;;;;;;4.27;1.70;;;;;;;17.33;60.80;94494.50;5050083;28;20275;-55
2022/07/19 01:19:44;;;;;;;5.00;2.23;;;;;;;17.51;60.50;94501.16;5045608;28;20267;-55
2022/07/19 01:22:28;;;;;;;1.97;1.60;;;;;;;17.46;60.68;94493.06;5045765;28;20206;-55
2022/07/19 01:25:12;;;;;;;3.13;1.50;;;;;;;17.16;61.98;94490.00;5047716;28;20202;-54
2022/07/19 01:27:56;;;;;;;2.00;1.63;;;;;;;17.07;62.15;94484.53;5045527;28;20244;-55
2022/07/19 01:30:40;;;;;;;2.73;1.80;;;;;;;17.11;61.97;94487.56;5047537;28;20286;-54
2022/07/19 01:33:24;;;;;;;1.90;1.63;;;;;;;17.14;61.80;94497.66;5048582;28;20248;-54
2022/07/19 01:36:09;;;;;;;2.00;1.83;;;;;;;17.03;61.76;94499.19;5049980;28;20213;-55
2022/07/19 01:38:53;;;;;;;2.27;1.80;;;;;;;16.91;62.52;94498.50;5061594;28;20202;-55
2022/07/19 01:41:37;;;;;;;4.43;2.00;;;;;;;16.52;63.59;94493.44;5044930;28;20296;-54
2022/07/19 01:44:21;;;;;;;3.57;1.70;;;;;;;16.69;63.60;94500.06;5040939;28;20217;-54
2022/07/19 01:47:05;;;;;;;3.10;1.90;;;;;;;16.81;63.21;94500.75;5051900;28;20247;-55
2022/07/19 01:49:49;;;;;;;2.13;1.70;;;;;;;16.55;63.89;94497.09;5054415;28;20244;-54
2022/07/19 01:52:33;;;;;;;2.80;1.83;;;;;;;16.44;64.32;94498.59;5051371;28;20205;-55
2022/07/19 01:55:18;;;;;;;5.57;1.97;;;;;;;16.33;65.14;94498.63;5052798;28;20561;-54
2022/07/19 01:58:02;;;;;;;2.70;1.87;;;;;;;16.42;64.61;94492.81;5053596;28;20706;-54
2022/07/19 02:00:47;;;;;;;1.93;1.77;;;;;;;16.19;65.20;94487.22;5054848;28;20197;-55
2022/07/19 02:03:31;;;;;;;5.30;1.67;;;;;;;16.45;64.80;94477.47;5041731;28;20267;-54
2022/07/19 02:06:15;;;;;;;2.30;1.97;;;;;;;16.64;64.32;94476.44;5054549;28;20240;-54
2022/07/19 02:08:59;;;;;;;3.33;1.67;;;;;;;16.66;64.09;94470.19;5048605;28;20730;-54
2022/07/19 02:11:43;;;;;;;3.07;1.80;;;;;;;16.31;64.72;94468.13;5048230;28;20256;-55
2022/07/19 02:14:27;;;;;;;2.13;1.93;;;;;;;16.38;64.94;94461.50;5048431;28;20213;-55
2022/07/19 02:17:11;;;;;;;1.53;1.43;;;;;;;16.40;64.90;94469.34;5054090;28;20260;-55
2022/07/19 02:19:55;;;;;;;2.73;2.13;;;;;;;16.28;65.26;94463.00;5050838;28;20622;-54
2022/07/19 02:22:40;;;;;;;3.20;1.90;;;;;;;16.17;65.74;94465.22;5048509;28;20257;-55
2022/07/19 02:25:24;;;;;;;3.43;1.73;;;;;;;16.10;65.68;94459.84;5046319;28;20197;-55
2022/07/19 02:28:10;;;;;;;2.17;1.67;;;;;;;16.18;65.37;94460.28;5051723;28;20197;-55
2022/07/19 02:30:54;;;;;;;1.80;1.40;;;;;;;16.00;65.93;94457.13;5048580;28;20242;-55
2022/07/19 02:33:38;;;;;;;1.80;1.63;;;;;;;15.84;66.60;94455.41;5047770;28;20201;-55
2022/07/19 02:36:22;;;;;;;1.90;1.80;;;;;;;15.83;66.54;94459.59;5045246;28;20197;-55
2022/07/19 02:39:06;;;;;;;2.23;2.03;;;;;;;15.67;66.82;94460.09;5049716;28;20686;-55
2022/07/19 02:41:49;;;;;;;2.83;1.77;;;;;;;15.81;66.97;94456.63;5052908;28;20748;-55
2022/07/19 02:44:33;;;;;;;2.90;2.00;;;;;;;15.72;66.90;94447.69;5040974;28;20192;-55
2022/07/19 02:47:17;;;;;;;1.67;1.57;;;;;;;15.58;67.50;94451.72;5053020;28;20205;-55
2022/07/19 02:50:02;;;;;;;1.83;1.73;;;;;;;15.51;67.78;94458.34;5052990;28;20732;-55
2022/07/19 02:52:45;;;;;;;3.77;1.90;;;;;;;15.46;67.63;94451.69;5044502;28;20586;-55
2022/07/19 02:55:31;;;;;;;3.20;1.57;;;;;;;15.46;67.52;94451.69;5045389;28;20314;-55
2022/07/19 02:58:15;;;;;;;1.97;1.70;;;;;;;15.44;67.54;94454.38;5051152;28;20229;-55
2022/07/19 03:00:58;;;;;;;1.80;1.70;;;;;;;15.40;67.94;94454.16;5051924;28;20209;-55
2022/07/19 03:03:50;;;;;;;7.23;1.70;;;;;;;15.42;67.73;94451.47;5047928;28;20229;-55
2022/07/19 03:06:33;;;;;;;3.07;1.70;;;;;;;15.19;68.93;94457.06;5051280;28;20265;-55
2022/07/19 03:09:18;;;;;;;3.73;1.63;;;;;;;14.95;69.68;94448.53;5049469;28;20281;-55
2022/07/19 03:12:02;;;;;;;1.93;1.80;;;;;;;15.08;69.45;94447.22;5052933;28;20201;-55
2022/07/19 03:14:46;;;;;;;4.80;2.23;;;;;;;15.12;69.38;94443.94;5046528;28;20674;-55
2022/07/19 03:17:31;;;;;;;2.27;2.07;;;;;;;15.08;69.61;94446.47;5048749;28;20279;-55
2022/07/19 03:20:16;;;;;;;3.40;2.00;;;;;;;14.95;70.26;94440.06;5054838;28;20206;-55
2022/07/19 03:23:00;;;;;;;2.43;1.93;;;;;;;15.01;70.06;94436.88;5047894;28;20252;-55
2022/07/19 03:25:44;;;;;;;2.20;1.83;;;;;;;14.96;70.57;94441.53;5051175;28;20209;-55
2022/07/19 03:28:29;;;;;;;1.90;1.70;;;;;;;14.96;70.46;94440.81;5046829;28;20255;-55
2022/07/19 03:31:13;;;;;;;2.67;2.00;;;;;;;15.06;70.78;94437.91;5051575;28;20225;-56
2022/07/19 03:33:56;;;;;;;4.60;2.27;;;;;;;15.04;70.59;94437.75;5052828;28;20225;-55
2022/07/19 03:36:41;;;;;;;3.43;1.87;;;;;;;15.13;69.45;94425.63;5047678;28;20201;-55
2022/07/19 03:39:25;;;;;;;3.73;2.37;;;;;;;15.07;69.96;94428.81;5050689;28;20244;-55
2022/07/19 03:42:09;;;;;;;3.20;1.77;;;;;;;15.06;69.68;94432.25;5047916;28;20201;-55
2022/07/19 03:44:53;;;;;;;3.57;1.70;;;;;;;15.08;70.34;94429.53;5046000;28;20287;-55
2022/07/19 03:47:37;;;;;;;2.60;1.90;;;;;;;15.14;69.63;94438.38;5045924;28;20193;-55
2022/07/19 03:50:21;;;;;;;1.87;1.77;;;;;;;15.23;69.19;94424.19;5051406;28;20259;-55
2022/07/19 03:53:05;;;;;;;4.63;1.90;;;;;;;15.43;68.26;94423.97;5049584;28;20252;-55
2022/07/19 03:55:49;;;;;;;4.80;2.07;;;;;;;15.50;67.66;94429.34;5052176;28;20616;-55
2022/07/19 03:58:33;;;;;;;2.67;2.30;;;;;;;15.37;67.87;94432.78;5051093;28;20280;-55
2022/07/19 04:01:17;;;;;;;4.47;2.10;;;;;;;15.61;67.79;94434.31;5051146;28;20278;-55
2022/07/19 04:04:01;;;;;;;2.27;2.07;;;;;;;15.74;67.87;94432.94;5047694;28;20245;-55
2022/07/19 04:06:46;;;;;;;2.20;1.93;;;;;;;15.85;66.71;94434.28;5047709;28;20348;-55
2022/07/19 04:09:30;;;;;;;3.57;2.13;;;;;;;16.77;64.30;94433.34;5046675;28;20192;-55
2022/07/19 04:12:14;;;;;;;10.97;1.70;;;;;;;18.56;58.19;94432.25;5048132;28;20625;-55
2022/07/19 04:14:58;;;;;;;4.87;1.50;;;;;;;19.43;55.02;94430.75;5047725;28;20208;-55
2022/07/19 04:17:42;;;;;;;3.07;1.40;;;;;;;20.94;51.07;94435.94;5044813;28;20315;-55
2022/07/19 04:20:26;;;;;;;3.63;1.47;;;;;;;21.38;49.62;94437.00;5052016;28;20196;-55
2022/07/19 04:23:10;;;;;;;5.47;2.03;;;;;;;21.89;49.00;94436.81;5045038;28;20201;-55
2022/07/19 04:25:54;;;;;;;2.90;1.63;;;;;;;22.49;46.92;94426.16;5048965;28;20248;-55
2022/07/19 04:28:38;;;;;;;3.33;1.40;;;;;;;22.71;46.41;94429.06;5051203;28;20678;-55
2022/07/19 04:31:22;;;;;;;1.57;1.47;;;;;;;22.99;44.63;94436.47;5045372;28;20198;-55
2022/07/19 04:34:07;;;;;;;3.47;1.83;;;;;;;22.95;44.89;94442.06;5051573;28;20236;-55
2022/07/19 04:36:50;;;;;;;5.73;1.87;;;;;;;21.82;47.56;94437.25;5051157;28;20260;-55
2022/07/19 04:39:34;;;;;;;1.60;1.50;;;;;;;21.22;49.35;94431.41;5036686;28;20812;-55
2022/07/19 04:42:18;;;;;;;1.37;1.27;;;;;;;20.99;50.23;94437.56;5050840;28;20678;-55
2022/07/19 04:45:04;;;;;;;1.43;1.33;;;;;;;20.87;50.95;94434.22;5052902;28;20734;-55
2022/07/19 04:47:48;;;;;;;1.97;1.70;;;;;;;20.82;51.23;94435.44;5045447;28;20271;-55
2022/07/19 04:50:32;;;;;;;2.43;2.00;;;;;;;20.72;51.29;94437.88;5050176;28;20210;-55
2022/07/19 04:53:16;;;;;;;2.10;1.40;;;;;;;20.55;52.04;94437.19;5044407;28;20197;-55
2022/07/19 04:56:00;;;;;;;2.03;1.73;;;;;;;20.59;52.14;94437.38;5049982;28;20277;-55
2022/07/19 04:58:44;;;;;;;7.13;1.67;;;;;;;20.79;51.95;94437.50;5045294;28;20662;-55
2022/07/19 05:01:28;;;;;;;5.60;1.67;;;;;;;20.84;52.27;94435.53;5043406;28;20205;-55
2022/07/19 05:04:12;;;;;;;2.17;1.97;;;;;;;20.94;52.74;94436.66;5044478;28;20312;-55
2022/07/19 05:06:56;;;;;;;2.27;1.87;;;;;;;20.95;53.29;94448.81;5048898;28;20255;-55
2022/07/19 05:09:41;;;;;;;2.10;1.90;;;;;;;20.97;53.32;94434.66;5049342;28;20306;-55
2022/07/19 05:12:25;;;;;;;1.57;1.47;;;;;;;20.92;53.95;94433.03;5046594;28;20678;-55
2022/07/19 05:15:09;;;;;;;6.30;2.33;;;;;;;21.03;54.80;94437.75;5042492;28;20300;-55
2022/07/19 05:17:53;;;;;;;3.43;1.57;;;;;;;21.24;54.20;94433.59;5050566;28;20264;-55
2022/07/19 05:20:37;;;;;;;5.53;1.90;;;;;;;21.40;53.68;94428.53;5042220;28;20657;-55
2022/07/19 05:23:21;;;;;;;2.47;2.00;;;;;;;21.60;51.75;94420.03;5041143;28;20255;-55
2022/07/19 05:26:05;;;;;;;4.20;1.70;;;;;;;21.76;50.06;94424.22;5049290;28;20742;-55
2022/07/19 05:28:49;;;;;;;4.10;2.00;;;;;;;22.02;48.56;94421.66;5050000;28;20193;-55
2022/07/19 05:31:33;;;;;;;2.38;1.90;;;;;;;22.03;49.47;94420.25;5048697;28;20205;-55
2022/07/19 05:34:17;;;;;;;4.40;2.10;;;;;;;22.10;49.65;94421.94;5049492;28;20236;-55
2022/07/19 05:37:01;;;;;;;3.73;1.97;;;;;;;22.20;48.91;94430.13;5051136;28;20241;-55
2022/07/19 05:39:45;;;;;;;2.08;1.70;;;;;;;22.28;48.74;94426.84;5049244;28;20198;-55
2022/07/19 05:42:29;;;;;;;3.87;1.60;;;;;;;22.33;49.01;94431.31;5041250;28;20202;-55
2022/07/19 05:45:13;;;;;;;1.92;1.42;;;;;;;22.49;48.47;94431.88;5041352;28;20861;-55
2022/07/19 05:47:57;;;;;;;1.90;1.70;;;;;;;22.67;48.05;94423.91;5047516;28;20368;-55
2022/07/19 05:50:41;;;;;;;3.25;1.95;;;;;;;22.82;46.72;94420.19;5044282;28;20690;-55
2022/07/19 05:53:26;;;;;;;1.75;1.35;;;;;;;22.99;45.82;94425.03;5047238;28;20209;-54
2022/07/19 05:56:10;;;;;;;1.70;1.60;;;;;;;23.30;44.90;94423.16;5047073;28;20723;-55
2022/07/19 05:58:54;;;;;;;2.15;1.50;;;;;;;23.49;44.51;94422.34;5043133;28;20241;-55
2022/07/19 06:01:39;;;;;;;2.22;1.65;;;;;;;23.60;44.21;94415.53;5029084;28;20245;-54
2022/07/19 06:04:23;;;;;;;4.70;1.58;;;;;;;23.78;43.63;94427.53;5046092;28;20225;-55
2022/07/19 06:07:07;;;;;;;6.28;1.52;;;;;;;23.97;42.21;94428.06;5028229;28;20781;-55
2022/07/19 06:09:50;;;;;;;2.25;1.50;;;;;;;24.11;41.89;94426.34;5042471;28;20737;-55
2022/07/19 06:12:34;;;;;;;2.75;1.33;;;;;;;24.29;41.89;94422.56;5044613;28;20217;-55
2022/07/19 06:15:18;;;;;;;1.38;1.25;;;;;;;24.41;41.16;94435.09;5045208;28;20286;-55
2022/07/19 06:18:02;;;;;;;3.85;1.40;;;;;;;24.51;41.89;94432.50;5040263;28;20349;-55
2022/07/19 06:20:46;;;;;;;1.55;1.30;;;;;;;24.52;42.14;94433.94;5044884;28;20293;-55
2022/07/19 06:23:30;;;;;;;1.55;1.45;;;;;;;24.61;41.93;94428.44;5045116;28;20217;-55
2022/07/19 06:26:15;;;;;;;4.55;1.77;;;;;;;24.83;41.89;94426.88;5045977;28;20240;-55
2022/07/19 06:28:59;;;;;;;5.10;1.65;;;;;;;25.00;41.86;94433.78;5044351;28;20333;-55
2022/07/19 06:31:43;;;;;;;1.40;1.30;;;;;;;25.09;41.56;94437.59;5041917;28;20217;-54
2022/07/19 06:34:27;;;;;;;1.73;1.20;;;;;;;25.24;41.47;94434.38;5045930;28;20190;-54
2022/07/19 06:37:11;;;;;;;2.17;1.65;;;;;;;25.30;40.74;94446.03;5047677;28;20241;-55
2022/07/19 06:39:55;;;;;;;2.90;1.17;;;;;;;25.49;42.21;94447.16;5049763;28;20260;-54
2022/07/19 06:42:38;;;;;;;2.75;1.65;;;;;;;25.47;40.38;94434.94;5046401;28;20881;-55
2022/07/19 06:45:23;;;;;;;2.00;1.35;;;;;;;25.48;40.59;94436.41;5045928;28;20240;-54
2022/07/19 06:48:06;;;;;;;2.40;1.58;;;;;;;25.75;40.23;94432.72;5053574;28;20208;-54
2022/07/19 06:50:50;;;;;;;4.32;1.65;;;;;;;25.80;40.07;94440.00;5049452;28;20287;-55
2022/07/19 06:53:35;;;;;;;3.40;1.58;;;;;;;25.94;40.24;94431.72;5049137;28;20225;-54
2022/07/19 06:56:19;;;;;;;4.82;1.60;;;;;;;26.09;39.62;94424.16;5049197;28;20205;-54
2022/07/19 06:59:03;;;;;;;2.75;1.20;;;;;;;26.13;37.24;94424.22;5050635;28;20241;-55
2022/07/19 07:01:48;;;;;;;6.88;1.23;;;;;;;26.44;36.84;94431.34;5052499;28;20201;-54
2022/07/19 07:04:32;;;;;;;1.77;1.20;;;;;;;26.63;36.17;94432.41;5051203;28;20249;-54
2022/07/19 07:07:16;;;;;;;3.70;1.35;;;;;;;26.23;35.61;94429.47;5052742;28;20198;-54
2022/07/19 07:10:01;;;;;;;5.07;1.20;;;;;;;26.42;36.23;94419.78;5049360;28;20286;-54
2022/07/19 07:12:45;;;;;;;3.17;1.20;;;;;;;26.69;35.17;94418.16;5051439;28;20256;-54
2022/07/19 07:15:29;;;;;;;1.83;1.60;;;;;;;26.84;35.33;94423.50;5050661;28;20240;-54
2022/07/19 07:18:14;;;;;;;1.83;1.48;;;;;;;26.83;33.73;94427.78;5047668;28;20225;-54
2022/07/19 07:20:59;;;;;;;2.50;1.35;;;;;;;26.98;34.17;94418.00;5052459;28;20251;-55
2022/07/19 07:23:43;;;;;;;2.25;1.35;;;;;;;27.13;34.34;94424.00;5048010;28;20209;-55
2022/07/19 07:26:27;;;;;;;2.92;1.35;;;;;;;27.23;34.55;94427.03;5043777;28;20244;-55
2022/07/19 07:29:11;;;;;;;2.28;1.25;;;;;;;27.12;33.88;94417.53;5052397;28;20200;-55
2022/07/19 07:31:55;;;;;;;2.20;1.25;;;;;;;26.79;34.05;94415.47;5045717;28;20209;-54
2022/07/19 07:34:39;;;;;;;4.90;1.35;;;;;;;26.57;34.58;94412.91;5047460;28;20256;-55
2022/07/19 07:37:26;;;;;;;5.20;1.58;;;;;;;26.68;34.33;94417.44;5045906;28;20272;-55
2022/07/19 07:40:10;;;;;;;2.10;1.30;;;;;;;27.13;34.08;94412.50;5046644;28;20233;-55
2022/07/19 07:42:55;;;;;;;2.08;1.20;;;;;;;27.05;33.64;94412.34;5047663;28;20204;-55
2022/07/19 07:45:39;;;;;;;3.53;1.27;;;;;;;26.63;33.28;94415.91;5049150;28;20283;-55
2022/07/19 07:48:23;;;;;;;4.20;1.73;;;;;;;26.71;34.37;94404.56;5048489;28;20282;-55
2022/07/19 07:51:07;;;;;;;2.97;1.10;;;;;;;26.85;33.42;94413.41;5033971;28;20260;-55
2022/07/19 07:53:51;;;;;;;2.17;1.60;;;;;;;27.05;33.73;94397.97;5043750;28;20205;-55
2022/07/19 07:56:35;;;;;;;7.93;1.35;;;;;;;27.31;34.77;94398.41;5048972;28;20244;-55
2022/07/19 07:59:19;;;;;;;1.48;1.30;;;;;;;27.13;33.84;94413.22;5043221;28;20344;-55
2022/07/19 08:02:03;;;;;;;1.77;1.33;;;;;;;27.41;33.73;94410.06;5041209;28;20205;-55
2022/07/19 08:04:48;;;;;;;3.72;1.60;;;;;;;27.88;33.88;94396.38;5040606;28;20271;-55
2022/07/19 08:07:32;;;;;;;1.50;1.40;;;;;;;27.96;32.89;94402.25;5048814;28;20241;-55
2022/07/19 08:10:17;;;;;;;2.55;1.23;;;;;;;28.02;32.57;94403.03;5048224;28;20206;-55
2022/07/19 08:13:02;;;;;;;3.22;1.30;;;;;;;28.20;32.38;94399.00;5049952;28;20563;-55
2022/07/19 08:15:46;;;;;;;2.85;1.20;;;;;;;28.44;32.80;94405.78;5045940;28;20265;-55
2022/07/19 08:18:29;;;;;;;1.30;1.20;;;;;;;28.08;32.71;94405.31;5047461;28;20597;-54
2022/07/19 08:21:13;;;;;;;2.15;1.23;;;;;;;28.14;33.21;94396.75;5050347;28;20206;-54
2022/07/19 08:23:57;;;;;;;1.67;1.30;;;;;;;28.56;32.09;94408.06;5043064;28;20193;-55
2022/07/19 08:26:41;;;;;;;7.47;1.60;;;;;;;28.28;33.66;94404.84;5049530;28;20589;-55
2022/07/19 08:29:25;;;;;;;1.33;1.23;;;;;;;28.55;33.82;94404.47;5050628;28;20237;-55
2022/07/19 08:32:10;;;;;;;1.48;1.38;;;;;;;28.39;32.32;94404.25;5044165;28;20692;-55
2022/07/19 08:34:54;;;;;;;1.35;1.10;;;;;;;28.40;32.27;94397.06;5051235;28;20271;-55
2022/07/19 08:37:38;;;;;;;2.60;1.52;;;;;;;28.75;32.54;94397.47;5045410;28;20360;-54
2022/07/19 08:40:22;;;;;;;4.13;1.23;;;;;;;28.74;32.47;94401.78;5046965;28;20224;-55
2022/07/19 08:43:06;;;;;;;1.90;1.20;;;;;;;28.75;31.44;94397.47;5048357;28;20686;-55
2022/07/19 08:45:50;;;;;;;5.65;1.42;;;;;;;28.62;31.29;94387.22;5046702;28;20280;-55
2022/07/19 08:48:36;;;;;;;1.70;1.45;;;;;;;28.92;31.26;94381.78;5047801;28;20252;-54
2022/07/19 08:51:21;;;;;;;3.90;1.15;;;;;;;28.65;30.91;94394.44;5049278;28;20368;-55
2022/07/19 08:54:05;;;;;;;2.67;1.30;;;;;;;29.26;30.92;94390.72;5047504;28;20279;-54
2022/07/19 08:59:52;;;;;;;3.60;1.10;;;;;;;29.69;28.65;94397.56;5049763;28;20197;-55
2022/07/19 09:02:36;;;;;;;5.35;1.23;;;;;;;29.51;29.07;94388.78;5035953;28;20256;-55
2022/07/19 09:05:21;;;;;;;2.33;1.20;;;;;;;29.94;28.86;94400.63;5042902;28;20198;-55
2022/07/19 09:08:11;;;;;;;1.25;0.90;;;;;;;29.32;29.72;94393.66;5049896;28;20283;-54
2022/07/19 09:11:14;;;;;;;1.92;1.00;;;;;;;29.93;29.77;94393.44;5050177;28;20260;-55
2022/07/19 09:14:09;;;;;;;1.95;1.10;;;;;;;29.32;28.96;94387.88;5046316;28;20228;-55
2022/07/19 09:16:55;;;;;;;1.25;0.93;;;;;;;29.25;29.65;94382.78;5042899;28;20643;-55
2022/07/19 09:19:42;;;;;;;6.80;1.27;;;;;;;29.64;29.39;94381.66;5046363;28;20225;-55
2022/07/19 09:22:28;;;;;;;2.65;1.17;;;;;;;29.77;29.05;94380.28;5049475;28;20221;-55
2022/07/19 09:25:12;;;;;;;2.47;1.10;;;;;;;29.98;28.39;94389.84;5041554;28;20268;-55
2022/07/19 09:27:57;;;;;;;1.55;1.20;;;;;;;29.92;28.98;94386.19;5046875;28;20193;-54
2022/07/19 09:30:46;;;;;;;5.57;1.17;;;;;;;29.41;28.15;94379.31;5047038;28;20760;-54
2022/07/19 09:33:32;;;;;;;2.80;0.93;;;;;;;29.77;27.29;94380.28;5039806;28;20234;-54
2022/07/19 09:36:16;;;;;;;4.13;1.27;;;;;;;29.69;28.00;94377.34;5044529;28;20206;-54
2022/07/19 09:39:00;;;;;;;2.95;0.95;;;;;;;29.71;28.30;94379.53;5048413;28;20277;-55
2022/07/19 09:41:55;;;;;;;3.70;1.10;;;;;;;30.06;27.69;94372.50;5041503;28;20209;-54
2022/07/19 09:44:40;;;;;;;9.23;1.40;;;;;;;30.21;26.07;94387.03;5044957;28;20689;-55
2022/07/19 09:47:33;;;;;;;3.35;1.30;;;;;;;29.73;25.76;94382.44;5050050;28;20197;-54
2022/07/19 09:50:21;;;;;;;3.90;1.15;;;;;;;30.28;26.91;94379.84;5048865;28;20279;-54
2022/07/19 09:53:06;;;;;;;3.90;1.40;;;;;;;30.34;27.19;94383.50;5046715;28;20635;-55
2022/07/19 09:55:50;;;;;;;1.45;0.80;;;;;;;30.75;26.67;94384.34;5049752;28;20581;-54
2022/07/19 09:58:35;;;;;;;2.88;1.00;;;;;;;30.09;26.09;94382.66;5043255;28;20252;-54
2022/07/19 10:01:20;;;;;;;3.25;1.08;;;;;;;30.53;26.91;94375.63;5043733;28;20252;-55
2022/07/19 10:04:09;;;;;;;3.00;1.27;;;;;;;30.43;25.94;94372.66;5045948;28;20268;-54
2022/07/19 10:06:54;;;;;;;2.15;0.90;;;;;;;30.22;24.80;94371.16;5045826;28;20201;-54
2022/07/19 10:09:39;;;;;;;2.97;1.10;;;;;;;30.46;24.99;94368.34;5047834;28;20682;-54
2022/07/19 10:12:23;;;;;;;1.25;1.10;;;;;;;30.11;25.93;94374.00;5039479;28;20744;-55
2022/07/19 10:15:09;;;;;;;3.08;1.45;;;;;;;30.35;26.03;94361.09;5051744;28;20197;-54
2022/07/19 10:17:53;;;;;;;4.25;1.15;;;;;;;30.90;26.87;94371.38;5051960;28;20264;-54
2022/07/19 10:20:39;;;;;;;3.75;1.35;;;;;;;30.78;26.09;94362.69;5052487;28;20202;-54
2022/07/19 10:23:28;;;;;;;1.77;1.00;;;;;;;30.91;25.97;94361.25;5045603;28;20210;-54
2022/07/19 10:26:33;;;;;;;1.38;1.27;;;;;;;30.51;26.10;94356.09;5052135;28;20668;-54
2022/07/19 10:29:18;;;;;;;4.60;1.30;;;;;;;30.63;26.03;94364.06;5053082;28;20278;-54
2022/07/19 10:32:06;;;;;;;3.85;1.05;;;;;;;30.74;25.05;94364.81;5045704;28;20218;-54
2022/07/19 10:35:19;;;;;;;1.65;1.17;;;;;;;31.13;25.26;94356.94;5050055;28;20209;-54
2022/07/19 10:38:09;;;;;;;1.25;1.15;;;;;;;31.01;25.08;94356.91;5052936;28;20245;-55
2022/07/19 10:40:58;;;;;;;2.60;1.58;;;;;;;30.60;25.84;94362.63;5045272;28;20281;-55
2022/07/19 10:44:07;;;;;;;2.20;1.55;;;;;;;30.74;24.97;94356.88;5048092;28;20574;-54
2022/07/19 10:46:51;;;;;;;8.68;1.45;;;;;;;31.00;24.97;94349.66;5050350;28;20267;-54
2022/07/19 10:49:46;;;;;;;3.30;1.45;;;;;;;31.16;24.55;94326.56;5053038;28;20229;-55
2022/07/19 10:52:35;;;;;;;4.45;1.42;;;;;;;30.78;24.40;94341.69;5049643;28;20645;-54
2022/07/19 10:55:25;;;;;;;3.75;1.50;;;;;;;31.32;25.22;94338.13;5048544;28;20210;-54
2022/07/19 10:58:11;;;;;;;2.45;1.40;;;;;;;30.78;25.15;94339.53;5047461;28;20225;-54
2022/07/19 11:01:01;;;;;;;1.90;1.13;;;;;;;30.94;25.58;94342.44;5058473;28;20274;-54
2022/07/19 11:03:46;;;;;;;14.00;2.33;;;;;;;31.47;25.62;94335.94;5047510;28;20240;-54
2022/07/19 11:06:29;;;;;;;9.40;1.90;;;;;;;31.24;24.35;94338.09;5049383;28;20209;-54
2022/07/19 11:09:13;;;;;;;3.17;1.52;;;;;;;31.17;24.14;94328.00;5049441;28;20244;-54
2022/07/19 11:11:57;;;;;;;4.30;1.60;;;;;;;31.47;23.90;94330.16;5053239;28;20571;-54
2022/07/19 11:14:44;;;;;;;5.47;2.00;;;;;;;31.28;24.95;94326.53;5041775;28;20201;-54
2022/07/19 11:17:29;;;;;;;10.32;2.05;;;;;;;31.53;24.24;94316.38;5046888;28;20290;-55
2022/07/19 11:20:16;;;;;;;3.75;1.52;;;;;;;31.37;24.63;94316.38;5045801;28;20209;-54
2022/07/19 11:23:03;;;;;;;9.30;2.05;;;;;;;31.64;24.27;94314.94;5048539;28;20206;-55
2022/07/19 11:25:50;;;;;;;4.38;1.50;;;;;;;31.51;24.13;94306.94;5048855;28;20234;-54
2022/07/19 11:28:35;;;;;;;3.53;1.77;;;;;;;31.97;24.32;94309.72;5045572;28;20220;-54
2022/07/19 11:31:23;;;;;;;3.50;1.83;;;;;;;31.77;23.26;94303.31;5052250;28;20225;-55
2022/07/19 11:34:11;;;;;;;3.65;1.60;;;;;;;31.80;24.24;94319.22;5050127;28;20205;-55
2022/07/19 11:36:58;;;;;;;4.13;1.75;;;;;;;32.10;24.46;94305.34;5049277;28;20244;-54
2022/07/19 11:39:47;;;;;;;2.00;1.40;;;;;;;32.20;24.67;94307.50;5046490;28;20266;-55
2022/07/19 11:42:43;;;;;;;6.32;1.73;;;;;;;31.86;24.18;94307.59;5047992;28;20229;-55
2022/07/19 11:45:28;;;;;;;3.33;2.03;;;;;;;31.97;23.65;94294.53;5046120;28;20209;-55
2022/07/19 11:48:23;;;;;;;7.57;2.20;;;;;;;31.94;24.30;94304.69;5049694;28;20286;-54
2022/07/19 11:51:10;;;;;;;2.38;1.98;;;;;;;32.08;24.87;94296.66;5049991;28;20209;-55
2022/07/19 11:53:56;;;;;;;4.22;2.03;;;;;;;32.25;24.71;94288.63;5046041;28;20218;-54
2022/07/19 11:56:43;;;;;;;6.75;2.05;;;;;;;32.15;23.58;94282.88;5051781;28;20678;-54
2022/07/19 11:59:28;;;;;;;3.85;2.05;;;;;;;31.93;24.42;94288.75;5043437;28;20280;-55
2022/07/19 12:02:12;;;;;;;2.45;2.00;;;;;;;32.35;24.20;94282.75;5038952;28;20256;-55
2022/07/19 12:04:56;;;;;;;2.97;1.60;;;;;;;32.64;24.71;94282.59;5050414;28;20701;-55
2022/07/19 12:07:48;;;;;;;2.47;1.70;;;;;;;32.27;25.19;94268.31;5048101;28;20217;-55
2022/07/19 12:10:45;;;;;;;3.50;1.65;;;;;;;32.70;25.06;94273.88;5039275;28;20200;-54
2022/07/19 12:13:30;;;;;;;2.63;1.95;;;;;;;32.36;24.69;94271.88;5034465;28;20202;-55
2022/07/19 12:16:14;;;;;;;3.67;1.92;;;;;;;32.31;24.70;94271.19;5043655;28;20201;-54
2022/07/19 12:18:59;;;;;;;5.13;2.05;;;;;;;32.57;23.83;94273.22;5041190;28;20276;-55
2022/07/19 12:21:44;;;;;;;2.63;1.80;;;;;;;32.64;24.12;94268.09;5046936;28;20209;-55
2022/07/19 12:24:29;;;;;;;5.50;1.65;;;;;;;32.82;24.36;94262.19;5050404;28;20205;-55
2022/07/19 12:27:15;;;;;;;4.55;1.60;;;;;;;32.66;23.78;94262.25;5047891;28;20657;-55
2022/07/19 12:30:01;;;;;;;3.90;1.58;;;;;;;32.36;23.06;94263.19;5050862;28;20670;-55
2022/07/19 12:32:47;;;;;;;5.65;2.08;;;;;;;32.61;22.84;94267.38;5046335;28;20229;-54
2022/07/19 12:35:44;;;;;;;2.85;1.75;;;;;;;32.86;23.01;94265.03;5046252;28;20193;-54
2022/07/19 12:38:32;;;;;;;2.55;1.63;;;;;;;32.65;22.27;94263.75;5051469;28;20221;-55
2022/07/19 12:41:15;;;;;;;2.78;1.50;;;;;;;32.98;23.11;94255.50;5050442;28;20576;-55
2022/07/19 12:43:59;;;;;;;2.22;1.70;;;;;;;32.79;23.07;94252.75;5043946;28;20622;-55
2022/07/19 12:46:43;;;;;;;4.00;1.90;;;;;;;33.26;22.63;94261.81;5049469;28;20205;-54
2022/07/19 12:49:45;;;;;;;3.28;1.60;;;;;;;33.36;21.94;94251.56;5050732;28;20201;-55
2022/07/19 12:52:30;;;;;;;1.90;1.73;;;;;;;33.49;21.86;94265.22;5045738;28;20256;-54
2022/07/19 12:55:14;;;;;;;2.80;1.90;;;;;;;32.98;21.93;94259.13;5050004;28;20760;-55
2022/07/19 12:57:59;;;;;;;4.78;1.63;;;;;;;32.92;21.49;94259.19;5051200;28;20236;-54
2022/07/19 13:00:42;;;;;;;4.20;1.63;;;;;;;32.87;20.17;94257.78;5051090;28;20193;-54